Time;durP1;ratioP1;P1;durP2;ratioP2;P2;SDS_P1;SDS_P2;PMS_P1;PMS_P2;Temp;Humidity;BMP_temperature;BMP_pressure;BME280_temperature;BME280_humidity;BME280_pressure;Samples;Min_cycle;Max_cycle;Signal;HPM_P1;HPM_P2
2023/08/08 00:02:13;;;;;;;3.63;0.87;;;;;;;-143.84;41.63;45049.06;5091654;28;20460;-51
2023/08/08 00:04:40;;;;;;;1.23;0.90;;;;;;;-143.84;41.77;45045.25;5092403;28;20472;-51
2023/08/08 00:07:08;;;;;;;2.67;0.83;;;;;;;-143.84;41.61;45020.50;5092014;28;20950;-50
2023/08/08 00:09:35;;;;;;;1.03;0.80;;;;;;;-143.84;41.39;45024.31;5092137;28;20861;-50
2023/08/08 00:12:02;;;;;;;1.00;0.90;;;;;;;-143.84;41.79;45066.22;5091588;28;20505;-50
2023/08/08 00:14:29;;;;;;;2.33;0.70;;;;;;;-143.84;41.91;45028.13;5091962;28;20436;-51
2023/08/08 00:16:57;;;;;;;1.67;0.90;;;;;;;-143.84;41.82;45033.84;5091513;28;20448;-50
2023/08/08 00:19:25;;;;;;;2.20;0.80;;;;;;;-143.84;42.17;45052.88;5091508;28;20440;-50
2023/08/08 00:21:52;;;;;;;3.30;1.53;;;;;;;-143.84;42.14;45018.59;5091755;28;20941;-51
2023/08/08 00:24:19;;;;;;;2.07;0.77;;;;;;;-143.84;42.26;45016.69;5091900;28;20436;-50
2023/08/08 00:26:46;;;;;;;2.00;0.90;;;;;;;-143.84;42.50;45005.28;5090683;28;20553;-50
2023/08/08 00:29:13;;;;;;;1.77;0.70;;;;;;;-143.84;42.26;45041.44;5091863;28;20505;-50
2023/08/08 00:31:40;;;;;;;1.53;1.00;;;;;;;-143.84;42.57;45018.59;5091559;28;20447;-49
2023/08/08 00:34:09;;;;;;;1.10;0.77;;;;;;;-143.84;42.59;45026.22;5091703;28;20925;-50
2023/08/08 00:36:36;;;;;;;1.53;1.10;;;;;;;-143.84;42.85;45030.03;5091771;28;20463;-51
2023/08/08 00:39:03;;;;;;;4.40;1.20;;;;;;;-143.84;42.92;45045.25;5091324;28;20435;-50
2023/08/08 00:41:30;;;;;;;1.00;0.70;;;;;;;-143.84;43.02;45030.03;5091371;28;20440;-51
2023/08/08 00:43:57;;;;;;;2.63;0.83;;;;;;;-143.84;43.30;45054.78;5090952;28;20470;-50
2023/08/08 00:46:24;;;;;;;2.83;1.10;;;;;;;-143.84;43.30;45041.44;5090877;28;20480;-50
2023/08/08 00:48:52;;;;;;;1.40;0.90;;;;;;;-143.84;43.17;45041.44;5090982;28;20523;-51
2023/08/08 00:51:22;;;;;;;6.20;0.90;;;;;;;-143.84;43.81;45052.88;5091365;28;20484;-49
2023/08/08 00:53:50;;;;;;;1.20;0.93;;;;;;;-143.84;44.04;45022.41;5091213;28;20517;-50
2023/08/08 00:56:18;;;;;;;1.10;1.00;;;;;;;-143.84;44.21;45049.06;5091457;28;20447;-51
2023/08/08 00:58:46;;;;;;;1.30;1.10;;;;;;;-143.84;44.01;45045.25;5091423;28;20496;-51
2023/08/08 01:01:13;;;;;;;4.10;1.03;;;;;;;-143.84;44.46;45054.78;5090962;28;20538;-50
2023/08/08 01:03:41;;;;;;;4.70;1.23;;;;;;;-143.84;45.14;45024.31;5090660;28;20484;-51
2023/08/08 01:06:17;;;;;;;1.30;0.80;;;;;;;-143.84;45.33;45018.59;5090103;28;20467;-50
2023/08/08 01:08:52;;;;;;;5.37;1.50;;;;;;;-143.84;45.51;45033.84;5091067;28;20474;-49
2023/08/08 01:11:19;;;;;;;1.20;1.10;;;;;;;-143.84;45.98;45050.97;5091276;28;20431;-50
2023/08/08 01:13:47;;;;;;;2.47;1.23;;;;;;;-143.84;46.41;45045.25;5090842;28;20436;-50
2023/08/08 01:16:15;;;;;;;1.50;1.30;;;;;;;-143.84;47.39;45052.88;5090710;28;20523;-52
2023/08/08 01:18:44;;;;;;;5.13;1.17;;;;;;;-143.84;47.69;45068.13;5090814;28;20438;-50
2023/08/08 01:21:11;;;;;;;3.43;1.20;;;;;;;-143.84;48.71;45049.06;5090977;28;20976;-51
2023/08/08 01:23:47;;;;;;;1.30;1.00;;;;;;;-143.84;49.49;45068.13;5090848;28;20435;-50
2023/08/08 01:26:16;;;;;;;5.80;1.10;;;;;;;-143.84;50.03;45049.06;5090492;28;20483;-50
2023/08/08 01:28:44;;;;;;;3.57;1.00;;;;;;;-143.84;51.56;45049.06;5090653;28;20489;-50
2023/08/08 01:31:11;;;;;;;4.13;1.50;;;;;;;-143.84;52.47;45041.44;5090432;28;20985;-50
2023/08/08 01:33:38;;;;;;;4.93;1.40;;;;;;;-143.84;53.23;45068.13;5090682;28;20817;-50
2023/08/08 01:36:14;;;;;;;2.27;1.27;;;;;;;-143.84;55.18;45052.88;5090984;28;20493;-51
2023/08/08 01:38:44;;;;;;;6.07;1.40;;;;;;;-143.84;55.92;45050.97;5090894;28;20504;-50
2023/08/08 01:41:12;;;;;;;2.00;1.37;;;;;;;-143.84;55.31;45058.59;5090731;28;20424;-50
2023/08/08 01:43:42;;;;;;;4.77;1.77;;;;;;;-143.84;56.02;45068.13;5090514;28;20501;-49
2023/08/08 01:46:10;;;;;;;2.83;1.23;;;;;;;-143.84;57.50;45050.97;5090706;28;20545;-50
2023/08/08 01:48:37;;;;;;;3.57;1.40;;;;;;;-143.84;57.90;45039.53;5090430;28;20440;-50
2023/08/08 01:51:04;;;;;;;3.97;1.30;;;;;;;-143.84;59.32;45049.06;5090522;28;20436;-51
2023/08/08 01:53:31;;;;;;;1.83;1.27;;;;;;;-143.84;59.07;45064.31;5090080;28;20941;-51
2023/08/08 01:55:58;;;;;;;1.33;1.23;;;;;;;-143.84;59.12;45071.91;5090189;28;20439;-50
2023/08/08 01:58:25;;;;;;;5.30;1.23;;;;;;;-143.84;57.77;45031.94;5090096;28;20873;-50
2023/08/08 02:00:54;;;;;;;2.13;1.93;;;;;;;-143.84;58.70;45033.84;5090000;28;20494;-50
2023/08/08 02:03:21;;;;;;;1.40;1.30;;;;;;;-143.84;58.66;45047.16;5089929;28;21085;-50
2023/08/08 02:05:48;;;;;;;3.30;1.77;;;;;;;-143.84;58.93;45033.84;5089936;28;20529;-50
2023/08/08 02:08:16;;;;;;;2.40;0.90;;;;;;;-143.84;59.17;45090.97;5090115;28;20527;-49
2023/08/08 02:10:45;;;;;;;1.30;1.10;;;;;;;-143.84;58.64;45050.97;5089788;28;20440;-50
2023/08/08 02:13:12;;;;;;;1.50;1.23;;;;;;;-143.84;58.42;45062.41;5089977;28;20455;-50
2023/08/08 02:15:39;;;;;;;2.33;1.30;;;;;;;-143.84;58.72;45092.88;5090119;28;20532;-50
2023/08/08 02:18:09;;;;;;;1.30;1.20;;;;;;;-143.84;59.22;45071.91;5090044;28;20431;-49
2023/08/08 02:20:36;;;;;;;2.20;1.27;;;;;;;-143.84;59.10;45079.53;5090077;28;20448;-50
2023/08/08 02:23:04;;;;;;;1.37;1.27;;;;;;;-143.84;59.17;45033.84;5089985;28;20493;-50
2023/08/08 02:25:31;;;;;;;1.40;1.30;;;;;;;-143.84;59.49;45028.13;5089657;28;20484;-50
2023/08/08 02:27:58;;;;;;;2.70;1.10;;;;;;;-143.84;58.77;45054.78;5089909;28;20777;-51
2023/08/08 02:30:26;;;;;;;1.57;1.40;;;;;;;-143.84;59.30;45075.72;5089834;28;20497;-51
2023/08/08 02:32:53;;;;;;;2.30;1.00;;;;;;;-143.84;59.47;45062.41;5089525;28;20440;-50
2023/08/08 02:35:22;;;;;;;2.00;1.30;;;;;;;-143.84;59.44;45054.78;5089750;28;20439;-50
2023/08/08 02:37:49;;;;;;;4.50;1.10;;;;;;;-143.84;59.98;45030.03;5089299;28;20440;-50
2023/08/08 02:40:16;;;;;;;3.10;1.73;;;;;;;-143.84;60.22;45050.97;5089440;28;20440;-50
2023/08/08 02:42:43;;;;;;;1.80;1.47;;;;;;;-143.84;60.46;45058.59;5089329;28;20444;-49
2023/08/08 02:45:11;;;;;;;2.83;1.10;;;;;;;-143.84;60.61;45075.72;5089449;28;20436;-50
2023/08/08 02:47:38;;;;;;;3.10;1.10;;;;;;;-143.84;60.61;45052.88;5089331;28;20447;-51
2023/08/08 02:50:06;;;;;;;1.87;1.37;;;;;;;-143.84;60.67;45068.13;5091752;28;20492;-50
2023/08/08 02:52:34;;;;;;;1.27;1.10;;;;;;;-143.84;61.09;45075.72;5093647;28;20926;-50
2023/08/08 02:55:02;;;;;;;2.50;1.20;;;;;;;-143.84;61.60;45060.50;5093584;28;20444;-50
2023/08/08 02:57:29;;;;;;;3.27;1.20;;;;;;;-143.84;61.87;45064.31;5093913;28;20444;-49
2023/08/08 02:59:56;;;;;;;1.60;1.50;;;;;;;-143.84;62.05;45068.13;5093793;28;20435;-50
2023/08/08 03:02:24;;;;;;;16.50;1.57;;;;;;;-143.84;62.61;45060.50;5093530;28;20483;-51
2023/08/08 03:04:51;;;;;;;1.97;1.30;;;;;;;-143.84;63.20;45079.53;5093107;28;20439;-50
2023/08/08 03:07:18;;;;;;;4.00;1.50;;;;;;;-143.84;63.40;45052.88;5093075;28;20479;-50
2023/08/08 03:09:46;;;;;;;2.40;1.37;;;;;;;-143.84;63.82;45050.97;5092951;28;21105;-50
2023/08/08 03:12:13;;;;;;;1.20;0.90;;;;;;;-143.84;63.56;45064.31;5093097;28;20548;-55
2023/08/08 03:14:41;;;;;;;2.90;1.30;;;;;;;-143.84;63.92;45050.97;5093118;28;21081;-55
2023/08/08 03:17:08;;;;;;;1.40;1.10;;;;;;;-143.84;63.85;45062.41;5092683;28;21006;-55
2023/08/08 03:19:35;;;;;;;2.10;1.30;;;;;;;-143.84;64.17;45047.16;5092770;28;20443;-55
2023/08/08 03:22:02;;;;;;;1.30;1.20;;;;;;;-143.84;64.39;45043.34;5093127;28;20496;-55
2023/08/08 03:24:29;;;;;;;2.30;1.00;;;;;;;-143.84;64.51;45039.53;5092817;28;20937;-55
2023/08/08 03:26:57;;;;;;;1.60;1.50;;;;;;;-143.84;64.54;45037.66;5092898;28;20540;-55
2023/08/08 03:29:25;;;;;;;1.80;1.60;;;;;;;-143.84;65.12;45062.41;5092829;28;20443;-55
2023/08/08 03:31:52;;;;;;;1.80;1.23;;;;;;;-143.84;64.97;45056.69;5092607;28;20435;-55
2023/08/08 03:34:19;;;;;;;1.40;1.30;;;;;;;-143.84;65.00;45056.69;5092259;28;20436;-55
2023/08/08 03:36:46;;;;;;;4.17;1.37;;;;;;;-143.84;65.22;45037.66;5092424;28;20990;-55
2023/08/08 03:39:13;;;;;;;5.17;1.30;;;;;;;-143.84;65.13;45058.59;5092667;28;20440;-51
2023/08/08 03:41:40;;;;;;;2.60;1.70;;;;;;;-143.84;64.32;45077.63;5092948;28;20436;-52
2023/08/08 03:44:09;;;;;;;7.20;2.37;;;;;;;-143.84;62.88;45071.91;5092720;28;20436;-50
2023/08/08 03:46:36;;;;;;;8.73;1.73;;;;;;;-143.84;61.72;45054.78;5092706;28;20486;-50
2023/08/08 03:49:03;;;;;;;2.70;1.60;;;;;;;-143.84;62.37;45041.44;5092655;28;20944;-49
2023/08/08 03:51:30;;;;;;;2.63;1.60;;;;;;;-143.84;63.65;45052.88;5092618;28;20440;-50
2023/08/08 03:53:57;;;;;;;13.53;1.60;;;;;;;-143.84;64.31;45064.31;5092593;28;20436;-50
2023/08/08 03:56:24;;;;;;;1.67;1.50;;;;;;;-143.84;64.67;45028.13;5092962;28;20428;-50
2023/08/08 03:58:51;;;;;;;1.70;1.60;;;;;;;-143.84;64.90;45049.06;5092329;28;20493;-49
2023/08/08 04:01:20;;;;;;;1.60;1.50;;;;;;;-143.84;64.78;45054.78;5091103;28;20561;-50
2023/08/08 04:03:47;;;;;;;2.60;1.33;;;;;;;-143.84;65.21;45052.88;5092125;28;20483;-50
2023/08/08 04:06:14;;;;;;;1.40;1.20;;;;;;;-143.84;64.91;45050.97;5092509;28;20479;-50
2023/08/08 04:08:41;;;;;;;1.40;1.30;;;;;;;-143.84;65.19;45056.69;5092241;28;20895;-50
2023/08/08 04:11:08;;;;;;;1.60;1.33;;;;;;;-143.84;65.27;45071.91;5092417;28;20440;-50
2023/08/08 04:13:36;;;;;;;3.27;1.33;;;;;;;-143.84;65.60;45049.06;5092248;28;20988;-51
2023/08/08 04:16:04;;;;;;;4.17;1.60;;;;;;;-143.84;66.19;45054.78;5092298;28;20452;-49
2023/08/08 04:18:32;;;;;;;3.60;1.70;;;;;;;-143.84;66.34;45062.41;5092067;28;20509;-49
2023/08/08 04:20:59;;;;;;;1.57;1.47;;;;;;;-143.84;66.33;45066.22;5091790;28;20485;-50
2023/08/08 04:23:26;;;;;;;1.50;1.40;;;;;;;-143.84;66.58;45050.97;5091925;28;20492;-49
2023/08/08 04:25:53;;;;;;;1.70;1.60;;;;;;;-143.84;66.46;45047.16;5092021;28;21040;-49
2023/08/08 04:28:21;;;;;;;1.30;1.20;;;;;;;-143.84;66.96;45075.72;5092278;28;20499;-50
2023/08/08 04:30:48;;;;;;;1.73;1.63;;;;;;;-143.84;67.37;45056.69;5091801;28;20470;-50
2023/08/08 04:33:15;;;;;;;10.83;1.80;;;;;;;-143.84;68.15;45070.00;5091848;28;20938;-49
2023/08/08 04:35:43;;;;;;;6.10;1.83;;;;;;;-143.84;68.07;45066.22;5091592;28;21025;-49
2023/08/08 04:38:10;;;;;;;1.90;1.70;;;;;;;-143.84;67.95;45020.50;5091529;28;20451;-50
2023/08/08 04:40:38;;;;;;;1.50;1.40;;;;;;;-143.84;67.81;45075.72;5091656;28;20432;-49
2023/08/08 04:43:05;;;;;;;3.20;2.10;;;;;;;-143.84;67.75;45077.63;5092016;28;20953;-50
2023/08/08 04:45:33;;;;;;;1.27;1.17;;;;;;;-143.84;67.84;45085.25;5091577;28;20436;-49
2023/08/08 04:48:00;;;;;;;2.70;1.83;;;;;;;-143.84;67.52;45056.69;5091123;28;21004;-50
2023/08/08 04:50:28;;;;;;;2.37;1.37;;;;;;;-143.84;67.52;45064.31;5090744;28;20443;-49
2023/08/08 04:52:56;;;;;;;10.53;1.77;;;;;;;-143.84;68.15;45056.69;5090490;28;20432;-49
2023/08/08 04:55:23;;;;;;;1.70;1.60;;;;;;;-143.84;67.46;45052.88;5090858;28;20520;-49
2023/08/08 04:57:50;;;;;;;9.33;2.30;;;;;;;-143.84;67.62;45054.78;5090521;28;20444;-50
2023/08/08 05:00:18;;;;;;;2.17;1.20;;;;;;;-143.84;67.40;45064.31;5090080;28;20501;-50
2023/08/08 05:02:45;;;;;;;2.20;1.70;;;;;;;-143.84;67.58;45045.25;5090475;28;20483;-50
2023/08/08 05:05:12;;;;;;;2.70;1.70;;;;;;;-143.84;68.27;45050.97;5091153;28;20440;-50
2023/08/08 05:07:39;;;;;;;2.80;1.43;;;;;;;-143.84;68.15;45043.34;5090779;28;20472;-50
2023/08/08 05:10:08;;;;;;;5.33;1.30;;;;;;;-143.84;68.14;45073.81;5091002;28;20778;-50
2023/08/08 05:12:35;;;;;;;7.80;1.70;;;;;;;-143.84;68.30;45022.41;5091102;28;20517;-49
2023/08/08 05:15:02;;;;;;;2.23;1.70;;;;;;;-143.84;68.44;45062.41;5091158;28;20439;-49
2023/08/08 05:17:32;;;;;;;6.10;1.53;;;;;;;-143.84;68.69;45049.06;5091233;28;21308;-49
2023/08/08 05:19:59;;;;;;;4.23;1.87;;;;;;;-143.84;68.33;45030.03;5090861;28;20501;-49
2023/08/08 05:22:26;;;;;;;4.10;1.40;;;;;;;-143.84;68.30;45066.22;5090952;28;20509;-49
2023/08/08 05:24:53;;;;;;;2.60;1.80;;;;;;;-143.84;68.12;45064.31;5090644;28;20436;-50
2023/08/08 05:27:22;;;;;;;4.13;1.37;;;;;;;-143.84;67.70;45054.78;5089602;28;20556;-49
2023/08/08 05:29:49;;;;;;;4.10;1.40;;;;;;;-143.84;67.65;45045.25;5089567;28;20436;-49
2023/08/08 05:32:16;;;;;;;3.47;1.80;;;;;;;-143.84;67.24;45056.69;5089352;28;20443;-50
2023/08/08 05:34:43;;;;;;;3.93;1.30;;;;;;;-143.84;67.60;45071.91;5090353;28;20436;-50
2023/08/08 05:37:10;;;;;;;5.60;1.73;;;;;;;-143.84;67.35;45054.78;5090454;28;20432;-49
2023/08/08 05:39:37;;;;;;;1.50;1.40;;;;;;;-143.84;68.04;45035.75;5090205;28;20787;-49
2023/08/08 05:42:04;;;;;;;1.40;1.07;;;;;;;-143.84;68.54;45056.69;5090621;28;20941;-49
2023/08/08 05:44:33;;;;;;;12.67;1.50;;;;;;;-143.84;68.63;45052.88;5090334;28;20524;-50
2023/08/08 05:47:00;;;;;;;4.40;1.30;;;;;;;-143.84;68.52;45071.91;5090182;28;20479;-49
2023/08/08 05:49:27;;;;;;;3.53;1.50;;;;;;;-143.84;68.73;45085.25;5090257;28;20859;-49
2023/08/08 05:51:54;;;;;;;1.80;1.70;;;;;;;-143.84;69.22;45079.53;5090620;28;20493;-49
2023/08/08 05:54:21;;;;;;;11.50;1.40;;;;;;;-143.84;70.16;45089.06;5090300;28;20842;-50
2023/08/08 05:56:48;;;;;;;10.90;1.90;;;;;;;-143.84;69.52;45052.88;5090382;28;20501;-49
2023/08/08 05:59:15;;;;;;;14.33;1.83;;;;;;;-143.84;69.99;45060.50;5089937;28;20881;-49
2023/08/08 06:01:45;;;;;;;11.10;1.70;;;;;;;-143.84;68.84;45054.78;5090018;28;20447;-49
2023/08/08 06:04:12;;;;;;;7.63;1.70;;;;;;;-143.84;69.12;45056.69;5089649;28;20552;-50
2023/08/08 06:06:39;;;;;;;2.53;1.50;;;;;;;-143.84;69.00;45052.88;5090217;28;20506;-50
2023/08/08 06:09:08;;;;;;;2.13;1.37;;;;;;;-143.84;67.95;45066.22;5090044;28;20440;-49
2023/08/08 06:11:35;;;;;;;4.30;1.10;;;;;;;-143.84;65.82;45052.88;5089629;28;20524;-50
2023/08/08 06:14:02;;;;;;;1.37;1.13;;;;;;;-143.84;65.26;45028.13;5090565;28;20454;-50
2023/08/08 06:16:30;;;;;;;2.60;1.43;;;;;;;-143.84;63.25;45026.22;5089970;28;20477;-49
2023/08/08 06:18:58;;;;;;;3.63;1.10;;;;;;;-143.84;63.80;45066.22;5089787;28;20431;-50
2023/08/08 06:21:25;;;;;;;6.50;1.47;;;;;;;-143.84;63.07;45033.84;5089757;28;20941;-49
2023/08/08 06:23:54;;;;;;;4.80;1.40;;;;;;;-143.84;62.52;45079.53;5089100;28;20444;-50
2023/08/08 06:26:22;;;;;;;12.23;1.60;;;;;;;-143.84;61.52;45026.22;5089656;28;20448;-49
2023/08/08 06:28:49;;;;;;;5.63;1.47;;;;;;;-143.84;61.85;45035.75;5089899;28;20519;-49
2023/08/08 06:31:16;;;;;;;11.10;1.70;;;;;;;-143.84;62.37;45026.22;5089488;28;20447;-50
2023/08/08 06:33:43;;;;;;;8.70;2.20;;;;;;;-143.84;62.14;45041.44;5089790;28;20779;-50
2023/08/08 06:36:14;;;;;;;15.73;1.90;;;;;;;-143.84;62.97;45047.16;5089844;28;21299;-50
2023/08/08 06:38:42;;;;;;;3.53;1.67;;;;;;;-143.84;63.55;45028.13;5089722;28;20456;-50
2023/08/08 06:41:09;;;;;;;1.67;1.57;;;;;;;-143.84;64.00;45037.66;5089524;28;20428;-50
2023/08/08 06:43:36;;;;;;;3.30;1.40;;;;;;;-143.84;64.62;45066.22;5089664;28;20444;-50
2023/08/08 06:46:04;;;;;;;3.50;1.70;;;;;;;-143.84;64.64;45022.41;5089817;28;20947;-51
2023/08/08 06:48:31;;;;;;;7.30;1.90;;;;;;;-143.84;64.33;45037.66;5089413;28;20533;-50
2023/08/08 06:50:58;;;;;;;11.90;1.80;;;;;;;-143.84;64.14;45033.84;5089560;28;20949;-51
2023/08/08 06:53:27;;;;;;;5.07;1.23;;;;;;;-143.84;63.97;45075.72;5089717;28;20860;-50
2023/08/08 06:55:54;;;;;;;4.93;1.33;;;;;;;-143.84;63.83;45030.03;5089466;28;20446;-49
2023/08/08 06:58:22;;;;;;;6.60;1.50;;;;;;;-143.84;64.08;45043.34;5089681;28;20451;-50
2023/08/08 07:00:51;;;;;;;4.43;1.80;;;;;;;-143.84;64.22;45039.53;5089163;28;20504;-50
2023/08/08 07:03:18;;;;;;;7.13;1.60;;;;;;;-143.84;64.69;45045.25;5089085;28;20484;-49
2023/08/08 07:05:45;;;;;;;2.47;1.80;;;;;;;-143.84;64.60;45049.06;5089273;28;20447;-50
2023/08/08 07:08:12;;;;;;;1.40;1.30;;;;;;;-143.84;64.94;45052.88;5089171;28;20483;-50
2023/08/08 07:10:41;;;;;;;4.83;1.33;;;;;;;-143.84;64.57;45054.78;5089241;28;20969;-50
2023/08/08 07:13:08;;;;;;;3.20;2.00;;;;;;;-143.84;64.38;45037.66;5089391;28;20467;-50
2023/08/08 07:15:36;;;;;;;4.37;1.63;;;;;;;-143.84;64.58;45075.72;5089466;28;20949;-50
2023/08/08 07:18:03;;;;;;;1.57;1.20;;;;;;;-143.84;64.22;45071.91;5089421;28;20466;-50
2023/08/08 07:20:30;;;;;;;4.13;1.87;;;;;;;-143.84;64.07;45045.25;5089298;28;20436;-50
2023/08/08 07:22:59;;;;;;;2.83;1.70;;;;;;;-143.84;64.09;45043.34;5088894;28;20444;-49
2023/08/08 07:25:26;;;;;;;6.03;1.50;;;;;;;-143.84;62.33;45049.06;5089109;28;21069;-49
2023/08/08 07:27:55;;;;;;;9.00;1.50;;;;;;;-143.84;60.41;45041.44;5089019;28;20479;-50
2023/08/08 07:30:22;;;;;;;9.07;1.40;;;;;;;-143.84;59.38;45014.78;5088876;28;20513;-49
2023/08/08 07:32:49;;;;;;;2.83;1.13;;;;;;;-143.84;59.33;45047.16;5088851;28;20464;-51
2023/08/08 07:35:17;;;;;;;4.70;1.53;;;;;;;-143.84;59.38;45033.84;5089670;28;20824;-49
2023/08/08 07:37:44;;;;;;;2.67;1.50;;;;;;;-143.84;58.19;45037.66;5092414;28;20976;-50
2023/08/08 07:40:17;;;;;;;3.83;1.23;;;;;;;-143.84;59.13;45009.09;5092873;28;20786;-50
2023/08/08 07:42:43;;;;;;;7.47;1.20;;;;;;;-143.84;56.95;45018.59;5092585;28;21351;-50
2023/08/08 07:45:12;;;;;;;3.47;1.20;;;;;;;-143.84;57.13;45050.97;5089641;28;20440;-50
2023/08/08 07:47:39;;;;;;;1.60;1.23;;;;;;;-143.84;56.54;45041.44;5092311;28;20475;-50
2023/08/08 07:50:08;;;;;;;2.70;1.50;;;;;;;-143.84;55.67;45070.00;5091802;28;20501;-50
2023/08/08 07:52:35;;;;;;;3.83;1.40;;;;;;;-143.84;55.98;45016.69;5091192;28;21016;-51
2023/08/08 07:55:03;;;;;;;8.43;1.53;;;;;;;-143.84;56.13;45050.97;5091111;28;20988;-50
2023/08/08 07:57:31;;;;;;;5.23;1.30;;;;;;;-143.84;57.05;45016.69;5092738;28;20945;-50
2023/08/08 07:59:58;;;;;;;5.00;1.37;;;;;;;-143.84;56.64;45043.34;5092499;28;20448;-50
2023/08/08 08:02:27;;;;;;;2.23;0.97;;;;;;;-143.84;56.50;45054.78;5092078;28;20479;-50
2023/08/08 08:04:54;;;;;;;5.83;1.00;;;;;;;-143.84;55.22;45056.69;5092449;28;20444;-50
2023/08/08 08:07:21;;;;;;;13.47;1.40;;;;;;;-143.84;56.19;45058.59;5092198;28;20479;-50
2023/08/08 08:09:49;;;;;;;5.60;1.60;;;;;;;-143.84;56.02;45037.66;5092019;28;20454;-51
2023/08/08 08:12:16;;;;;;;1.47;1.37;;;;;;;-143.84;54.85;45054.78;5092028;28;20440;-50
2023/08/08 08:14:43;;;;;;;1.10;1.00;;;;;;;-143.84;53.62;45033.84;5092003;28;20444;-50
2023/08/08 08:17:10;;;;;;;1.80;1.70;;;;;;;-143.84;51.62;45033.84;5091561;28;20447;-51
2023/08/08 08:19:39;;;;;;;1.40;1.30;;;;;;;-143.84;51.13;45035.75;5091585;28;20428;-50
2023/08/08 08:22:06;;;;;;;3.47;1.23;;;;;;;-143.84;50.48;45047.16;5092008;28;20448;-50
2023/08/08 08:24:33;;;;;;;6.50;1.10;;;;;;;-143.84;50.44;45033.84;5091713;28;20432;-49
2023/08/08 08:27:00;;;;;;;1.43;1.33;;;;;;;-143.84;49.62;45022.41;5086225;28;20451;-50
2023/08/08 08:29:27;;;;;;;7.57;1.57;;;;;;;-143.84;50.62;45028.13;5091746;28;20428;-51
2023/08/08 08:31:54;;;;;;;4.93;1.70;;;;;;;-143.84;50.54;45026.22;5091258;28;20937;-50
2023/08/08 08:34:22;;;;;;;2.30;1.67;;;;;;;-143.84;50.43;45022.41;5091484;28;20432;-50
2023/08/08 08:36:50;;;;;;;3.80;1.27;;;;;;;-143.84;49.81;45041.44;5091253;28;20544;-51
2023/08/08 08:39:17;;;;;;;1.40;1.13;;;;;;;-143.84;49.16;45005.28;5092017;28;20793;-50
2023/08/08 08:41:49;;;;;;;4.17;1.43;;;;;;;-143.84;50.30;45020.50;5091635;28;20440;-51
2023/08/08 08:44:17;;;;;;;1.40;1.17;;;;;;;-143.84;50.63;45024.31;5091121;28;20517;-50
2023/08/08 08:46:48;;;;;;;4.80;1.30;;;;;;;-143.84;51.57;45047.16;5090865;28;20766;-50
2023/08/08 08:49:18;;;;;;;4.40;1.33;;;;;;;-143.84;52.00;45049.06;5091345;28;20511;-50
2023/08/08 08:51:45;;;;;;;6.13;1.80;;;;;;;-143.84;51.13;45045.25;5091332;28;20446;-50
2023/08/08 08:54:15;;;;;;;3.97;1.43;;;;;;;-143.84;51.63;45026.22;5091519;28;20436;-50
2023/08/08 08:56:43;;;;;;;1.40;1.00;;;;;;;-143.84;51.53;45007.19;5091498;28;20428;-50
2023/08/08 08:59:10;;;;;;;1.27;1.17;;;;;;;-143.84;51.93;45033.84;5091179;28;20440;-50
2023/08/08 09:01:38;;;;;;;1.77;1.23;;;;;;;-143.84;51.23;45022.41;5091221;28;20509;-50
2023/08/08 09:04:08;;;;;;;6.40;1.60;;;;;;;-143.84;52.39;45052.88;5090867;28;20549;-50
2023/08/08 09:06:38;;;;;;;1.40;1.27;;;;;;;-143.84;52.78;45043.34;5091257;28;20435;-50
2023/08/08 09:09:05;;;;;;;2.20;1.30;;;;;;;-143.84;52.72;45049.06;5091079;28;20479;-49
2023/08/08 09:11:35;;;;;;;1.90;1.70;;;;;;;-143.84;53.63;45041.44;5090867;28;20514;-51
2023/08/08 09:14:02;;;;;;;1.83;1.70;;;;;;;-143.84;54.06;45043.34;5091039;28;20432;-50
2023/08/08 09:16:30;;;;;;;3.77;1.70;;;;;;;-143.84;54.02;45039.53;5091140;28;20518;-50
2023/08/08 09:18:57;;;;;;;3.30;1.33;;;;;;;-143.84;54.49;45047.16;5090838;28;20985;-50
2023/08/08 09:21:24;;;;;;;1.97;1.80;;;;;;;-143.84;55.39;45033.84;5091234;28;20444;-50
2023/08/08 09:23:51;;;;;;;3.73;1.93;;;;;;;-143.84;56.62;45064.31;5091045;28;20496;-50
2023/08/08 09:26:19;;;;;;;3.10;2.00;;;;;;;-143.84;56.94;45052.88;5089349;28;21117;-50
2023/08/08 09:28:47;;;;;;;1.60;1.50;;;;;;;-143.84;55.71;45035.75;5089057;28;20567;-50
2023/08/08 09:31:14;;;;;;;1.47;1.37;;;;;;;-143.84;55.38;45030.03;5090304;28;20448;-49
2023/08/08 09:33:43;;;;;;;1.50;1.40;;;;;;;-143.84;57.16;45058.59;5090280;28;20450;-50
2023/08/08 09:36:15;;;;;;;3.07;1.70;;;;;;;-143.84;56.62;45056.69;5089749;28;20440;-50
2023/08/08 09:38:42;;;;;;;3.63;1.43;;;;;;;-143.84;56.71;45035.75;5090018;28;20440;-50
2023/08/08 09:41:09;;;;;;;1.80;1.50;;;;;;;-143.84;56.63;45062.41;5090682;28;20447;-50
2023/08/08 09:43:36;;;;;;;2.13;1.63;;;;;;;-143.84;57.12;45064.31;5090625;28;20444;-50
2023/08/08 09:46:05;;;;;;;3.13;2.00;;;;;;;-143.84;57.62;45073.81;5090553;28;20436;-50
2023/08/08 09:48:33;;;;;;;2.23;1.60;;;;;;;-143.84;56.95;45052.88;5090489;28;21000;-49
2023/08/08 09:51:00;;;;;;;1.77;1.63;;;;;;;-143.84;56.28;45049.06;5090078;28;20451;-50
2023/08/08 09:53:29;;;;;;;1.70;1.60;;;;;;;-143.84;56.98;45064.31;5090163;28;21231;-50
2023/08/08 09:55:56;;;;;;;2.13;1.83;;;;;;;-143.84;57.23;45071.91;5090680;28;20467;-51
2023/08/08 09:58:24;;;;;;;2.23;2.03;;;;;;;-143.84;57.21;45030.03;5089583;28;20436;-50
2023/08/08 10:00:51;;;;;;;2.10;1.90;;;;;;;-143.84;58.07;45039.53;5089813;28;20469;-50
2023/08/08 10:03:20;;;;;;;5.17;1.70;;;;;;;-143.84;58.25;45075.72;5089956;28;20480;-50
2023/08/08 10:05:48;;;;;;;3.67;1.70;;;;;;;-143.84;58.62;45056.69;5089984;28;20444;-50
2023/08/08 10:08:17;;;;;;;2.33;1.87;;;;;;;-143.84;59.07;45041.44;5090012;28;20915;-49
2023/08/08 10:10:46;;;;;;;1.60;1.50;;;;;;;-143.84;58.72;45047.16;5090009;28;20444;-51
2023/08/08 10:13:21;;;;;;;1.70;1.60;;;;;;;-143.84;58.90;45060.50;5089514;28;20448;-50
2023/08/08 10:15:48;;;;;;;5.00;1.67;;;;;;;-143.84;59.13;45037.66;5089379;28;20467;-50
2023/08/08 10:18:15;;;;;;;1.60;1.50;;;;;;;-143.84;58.75;45060.50;5088492;28;20447;-50
2023/08/08 10:20:47;;;;;;;9.40;1.60;;;;;;;-143.84;59.77;45030.03;5090077;28;20424;-50
2023/08/08 10:23:16;;;;;;;4.00;1.70;;;;;;;-143.84;60.28;45071.91;5090139;28;20436;-49
2023/08/08 10:25:45;;;;;;;9.90;1.50;;;;;;;-143.84;61.29;45031.94;5089813;28;20965;-50
2023/08/08 10:28:14;;;;;;;1.90;1.80;;;;;;;-143.84;61.86;45079.53;5089639;28;20484;-50
2023/08/08 10:30:46;;;;;;;1.60;1.30;;;;;;;-143.84;61.46;45039.53;5089818;28;20431;-50
2023/08/08 10:33:18;;;;;;;1.67;1.47;;;;;;;-143.84;62.19;45064.31;5090170;28;20512;-50
2023/08/08 10:35:57;;;;;;;1.63;1.53;;;;;;;-143.84;62.19;45073.81;5089888;28;20436;-50
2023/08/08 10:38:25;;;;;;;3.00;1.53;;;;;;;-143.84;63.08;45070.00;5089794;28;20444;-50
2023/08/08 10:40:57;;;;;;;4.20;1.60;;;;;;;-143.84;63.51;45085.25;5089578;28;20443;-50
2023/08/08 10:43:28;;;;;;;2.20;1.37;;;;;;;-143.84;63.98;45060.50;5089516;28;20459;-50
2023/08/08 10:45:59;;;;;;;3.47;1.50;;;;;;;-143.84;64.45;45075.72;5089725;28;20976;-51
2023/08/08 10:48:27;;;;;;;1.60;1.50;;;;;;;-143.84;64.75;45054.78;5070130;28;20473;-51
2023/08/08 10:50:59;;;;;;;5.77;1.50;;;;;;;-143.84;64.99;45087.16;5069434;28;20445;-50
2023/08/08 10:53:27;;;;;;;2.23;2.00;;;;;;;-143.84;65.96;45090.97;5069571;28;20444;-50
2023/08/08 10:56:01;;;;;;;1.53;1.43;;;;;;;-143.84;66.75;45089.06;5069068;28;20939;-50
2023/08/08 10:58:39;;;;;;;2.67;1.90;;;;;;;-143.84;66.86;45094.78;5069494;28;20439;-50
2023/08/08 11:01:08;;;;;;;1.97;1.60;;;;;;;-143.84;67.07;45047.16;5069489;28;20437;-50
2023/08/08 11:03:38;;;;;;;2.90;1.70;;;;;;;-143.84;68.06;45056.69;5069067;28;20499;-49
2023/08/08 11:06:08;;;;;;;2.50;2.30;;;;;;;-143.84;68.49;45047.16;5069600;28;20448;-49
2023/08/08 11:08:35;;;;;;;2.03;1.83;;;;;;;-143.84;69.88;45094.78;5069124;28;20558;-50
2023/08/08 11:11:03;;;;;;;4.20;1.80;;;;;;;-143.84;70.76;45071.91;5070844;28;20448;-50
2023/08/08 11:13:31;;;;;;;5.00;2.00;;;;;;;-143.84;71.51;45087.16;5073429;28;20437;-50
2023/08/08 11:15:58;;;;;;;3.60;1.77;;;;;;;-143.84;71.40;45089.06;5073064;28;21036;-50
2023/08/08 11:18:27;;;;;;;2.07;1.87;;;;;;;-143.84;72.79;45087.16;5073025;28;20436;-50
2023/08/08 11:20:55;;;;;;;2.40;2.20;;;;;;;-143.84;74.54;45085.25;5073026;28;21215;-51